Flight Track Log - Related Links

Times and Time Zones

All times are in EDT time to prevent confusion due to time zone crossing. See the AWE1253 flight status page for this flight to view local times or setup timezone preferences in your user account.

Time Position Orientation Groundspeed Altitude Reporting Facility
EDT Latitude Longitude Course Direction KTS MPH feet Rate Location/Type
Thu 08:48:13 PM 39.8833 -75.2167 237° Southwest 172 198 700  Level Philadelphia TRACON
Thu 08:50:43 PM 39.9517 -75.1875 18° North 158 182 5,900 2,218 Climbing New York Center
Thu 08:51:00 PM 39.8165 -75.8115 232° Southwest  Level FlightAware Approximate
Thu 08:51:44 PM 39.9333 -75.2864 256° West 185 213 8,500  Level New York Center
Thu 08:52:00 PM 39.7462 -75.9286 232° Southwest  Level FlightAware Approximate
Thu 08:52:41 PM 39.8944 -75.3758 240° Southwest 252 290 9,200  Level New York Center
Thu 08:53:00 PM 39.6715 -76.0403 237° Southwest  Level FlightAware Approximate
Thu 08:53:42 PM 39.8781 -75.4750 258° West 271 312 10,000  Level New York Center
Thu 08:54:43 PM 39.8636 -75.5739 259° West 299 344 10,000 689 Level New York Center
Thu 08:55:44 PM 39.8478 -75.7028 261° West 328 377 11,400 1,311 Climbing New York Center
Thu 08:56:42 PM 39.8264 -75.8122 256° West 344 396 12,600 1,815 Climbing New York Center
Thu 08:57:43 PM 39.7614 -75.9183 231° Southwest 362 417 15,000 2,479 Climbing New York Center
Thu 08:58:43 PM 39.6942 -76.0267 231° Southwest 388 447 17,600 2,430 Climbing New York Center
Thu 08:59:44 PM 39.6244 -76.1400 231° Southwest 407 468 19,900 2,218 Climbing New York Center
Thu 09:00:42 PM 39.5433 -76.2658 230° Southwest 412 474 22,000 1,872 Climbing New York Center
Thu 09:02:05 PM 39.4400 -76.4244 230° Southwest 427 491 24,300 1,702 Climbing Washington Center
Thu 09:03:03 PM 39.3681 -76.5367 230° Southwest 438 504 26,000 2,034 Climbing Washington Center
Thu 09:04:03 PM 39.2922 -76.6561 231° Southwest 438 504 28,300 1,983 Climbing Washington Center
Thu 09:05:04 PM 39.2181 -76.7703 230° Southwest 438 504 30,000 857 Climbing Washington Center
Thu 09:06:02 PM 39.1419 -76.8894 231° Southwest 438 504 30,000  Level Washington Center
Thu 09:07:02 PM 39.0656 -77.0111 231° Southwest 438 504 30,000  Level Washington Center
Thu 09:08:03 PM 38.9767 -77.1136 222° Southwest 438 504 30,000  Level Washington Center
Thu 09:09:02 PM 38.8836 -77.2183 221° Southwest 438 504 30,000  Level Washington Center
Thu 09:10:02 PM 38.7906 -77.3147 219° Southwest 438 504 30,000  Level Washington Center
Thu 09:11:03 PM 38.6972 -77.4192 221° Southwest 438 504 30,000  Level Washington Center
Thu 09:12:04 PM 38.6019 -77.5203 220° Southwest 438 504 30,000  Level Washington Center
Thu 09:13:02 PM 38.5083 -77.6239 221° Southwest 438 504 30,000  Level Washington Center
Thu 09:14:02 PM 38.4172 -77.7222 220° Southwest 438 504 30,000  Level Washington Center
Thu 09:15:04 PM 38.3214 -77.8253 220° Southwest 438 504 30,000  Level Washington Center
Thu 09:16:05 PM 38.2278 -77.9256 220° Southwest 438 504 30,000  Level Washington Center
Thu 09:17:02 PM 38.1339 -78.0283 221° Southwest 438 504 30,000  Level Washington Center
Thu 09:18:02 PM 38.0358 -78.1306 219° Southwest 444 511 30,000  Level Washington Center
Thu 09:19:03 PM 37.9333 -78.2378 220° Southwest 438 504 30,000  Level Washington Center
Thu 09:20:02 PM 37.8419 -78.3214 216° Southwest 448 516 30,000  Level Washington Center
Thu 09:21:02 PM 37.7417 -78.4150 216° Southwest 454 522 30,000  Level Washington Center
Thu 09:22:02 PM 37.6392 -78.5108 217° Southwest 454 522 30,000  Level Washington Center
Thu 09:23:03 PM 37.5389 -78.6064 217° Southwest 461 531 30,000  Level Washington Center
Thu 09:24:04 PM 37.4258 -78.7092 216° Southwest 461 531 30,000  Level Washington Center
Thu 09:25:04 PM 37.3253 -78.8017 216° Southwest 461 531 30,000  Level Washington Center
Thu 09:26:02 PM 37.2225 -78.8964 216° Southwest 461 531 30,000  Level Washington Center
Thu 09:27:02 PM 37.1219 -78.9911 217° Southwest 466 536 30,000  Level Washington Center
Thu 09:28:03 PM 37.0189 -79.0881 217° Southwest 466 536 30,000  Level Washington Center
Thu 09:29:03 PM 36.9247 -79.1722 216° Southwest 466 536 30,000  Level Washington Center
Thu 09:30:54 PM 36.7219 -79.3564 216° Southwest 455 524 30,000  Level Atlanta Center
Thu 09:31:54 PM 36.6192 -79.4528 217° Southwest 455 524 30,000  Level Atlanta Center
Thu 09:32:54 PM 36.5161 -79.5467 216° Southwest 462 532 30,000  Level Atlanta Center
Thu 09:33:54 PM 36.4233 -79.6319 216° Southwest 462 532 30,000  Level Atlanta Center
Thu 09:34:54 PM 36.3206 -79.7278 217° Southwest 462 532 30,000  Level Atlanta Center
Thu 09:35:54 PM 36.2172 -79.8208 216° Southwest 462 532 30,000  Level Atlanta Center
Thu 09:36:54 PM 36.1119 -79.9111 215° Southwest 462 532 30,000  Level Atlanta Center
Thu 09:37:54 PM 35.9878 -80.0019 211° Southwest 467 537 30,000  Level Atlanta Center
Thu 09:38:54 PM 35.8667 -80.0669 204° Southwest 467 537 30,000  Level Atlanta Center
Thu 09:39:54 PM 35.7433 -80.1242 201° Southwest 477 549 30,000  Level Atlanta Center
Thu 09:40:54 PM 35.6225 -80.1886 203° Southwest 477 549 30,000  Level Atlanta Center
Thu 09:41:54 PM 35.4969 -80.2506 202° Southwest 477 549 30,000  Level Atlanta Center
Thu 09:42:54 PM 35.3739 -80.3125 202° Southwest 483 556 30,000  Level Atlanta Center
Thu 09:43:54 PM 35.2525 -80.3739 202° Southwest 483 556 30,000  Level Atlanta Center
Thu 09:46:10 PM 34.9842 -80.5058 202° Southwest 474 545 30,000  Level Jacksonville Center
Thu 09:47:10 PM 34.8497 -80.5728 202° Southwest 474 545 30,000 -50 Level Jacksonville Center
Thu 09:48:10 PM 34.7278 -80.6342 202° Southwest 474 545 29,900  Descending Jacksonville Center
Thu 09:49:10 PM 34.5997 -80.6956 202° Southwest 484 557 30,000 50 Climbing Jacksonville Center
Thu 09:50:10 PM 34.4736 -80.7592 203° Southwest 495 570 30,000  Level Jacksonville Center
Thu 09:51:10 PM 34.3472 -80.8228 203° Southwest 488 562 30,000 -50 Level Jacksonville Center
Thu 09:52:10 PM 34.2294 -80.8808 202° Southwest 488 562 29,900 -50 Descending Jacksonville Center
Thu 09:53:10 PM 34.1050 -80.9389 201° Southwest 482 555 29,900 50 Level Jacksonville Center
Thu 09:54:10 PM 33.9911 -80.9914 201° Southwest 490 564 30,000 50 Climbing Jacksonville Center
Thu 09:55:10 PM 33.8564 -81.0544 201° Southwest 484 557 30,000  Level Jacksonville Center
Thu 09:56:10 PM 33.7403 -81.1117 202° Southwest 490 564 30,000 -50 Level Jacksonville Center
Thu 09:57:10 PM 33.6181 -81.1742 203° Southwest 490 564 29,900 -50 Descending Jacksonville Center
Thu 09:58:10 PM 33.4978 -81.2336 202° Southwest 477 549 29,900  Level Jacksonville Center
Thu 09:59:10 PM 33.3756 -81.2983 204° Southwest 477 549 29,900 50 Level Jacksonville Center
Thu 10:00:10 PM 33.2450 -81.3650 203° Southwest 472 543 30,000  Climbing Jacksonville Center
Thu 10:01:10 PM 33.1414 -81.4289 207° Southwest 472 543 29,900 -50 Descending Jacksonville Center
Thu 10:02:10 PM 33.0211 -81.5028 207° Southwest 482 555 29,900  Level Jacksonville Center
Thu 10:03:10 PM 32.9069 -81.5761 208° Southwest 482 555 29,900  Level Jacksonville Center
Thu 10:04:10 PM 32.7950 -81.6519 210° Southwest 477 549 29,900 50 Level Jacksonville Center
Thu 10:05:10 PM 32.6664 -81.7228 205° Southwest 460 529 30,000 50 Climbing Jacksonville Center
Thu 10:06:10 PM 32.5625 -81.7808 205° Southwest 460 529 30,000  Level Jacksonville Center
Thu 10:07:10 PM 32.4208 -81.8219 194° South 465 535 30,000  Level Jacksonville Center
Thu 10:08:10 PM 32.3019 -81.8431 189° South 481 554 30,000  Level Jacksonville Center
Thu 10:09:10 PM 32.1583 -81.8717 190° South 481 554 30,000  Level Jacksonville Center
Thu 10:10:10 PM 32.0269 -81.8978 190° South 481 554 30,000  Level Jacksonville Center
Thu 10:11:10 PM 31.9081 -81.9208 189° South 481 554 30,000  Level Jacksonville Center
Thu 10:12:10 PM 31.7642 -81.9469 189° South 481 554 30,000  Level Jacksonville Center
Thu 10:13:10 PM 31.6433 -81.9678 188° South 487 560 30,000  Level Jacksonville Center
Thu 10:14:10 PM 31.4994 -81.9983 190° South 482 555 30,000 -50 Level Jacksonville Center
Thu 10:15:10 PM 31.3681 -82.0289 191° South 487 560 29,900 -50 Descending Jacksonville Center
Thu 10:16:10 PM 31.2389 -82.0494 188° South 487 560 29,900  Level Jacksonville Center
Thu 10:17:10 PM 31.1117 -82.0772 191° South 482 555 29,900  Level Jacksonville Center
Thu 10:18:10 PM 30.9844 -82.1003 189° South 477 549 29,900 50 Level Jacksonville Center
Thu 10:19:10 PM 30.8531 -82.1231 188° South 477 549 30,000 50 Climbing Jacksonville Center
Thu 10:20:10 PM 30.7258 -82.1483 190° South 477 549 30,000 -50 Level Jacksonville Center
Thu 10:21:10 PM 30.5964 -82.1733 189° South 472 543 29,900 -50 Descending Jacksonville Center
Thu 10:22:10 PM 30.4692 -82.1911 187° South 465 535 29,900  Level Jacksonville Center
Thu 10:23:10 PM 30.3419 -82.2186 191° South 465 535 29,900 50 Level Jacksonville Center
Thu 10:24:10 PM 30.2128 -82.2411 189° South 465 535 30,000  Climbing Jacksonville Center
Thu 10:25:10 PM 30.0917 -82.2658 190° South 458 527 29,900 -50 Descending Jacksonville Center
Thu 10:26:10 PM 29.9811 -82.2858 189° South 432 497 29,900  Level Jacksonville Center
Thu 10:27:10 PM 29.8686 -82.3081 190° South 421 484 29,900 50 Level Jacksonville Center
Thu 10:28:10 PM 29.7558 -82.3281 189° South 415 478 30,000 -600 Climbing Jacksonville Center
Thu 10:29:10 PM 29.6475 -82.3453 188° South 407 468 28,700 -1,450 Descending Jacksonville Center
Thu 10:30:10 PM 29.5367 -82.3508 182° South 407 468 27,100 -1,550 Descending Jacksonville Center
Thu 10:31:10 PM 29.4261 -82.3394 175° South 402 463 25,600 -1,500 Descending Jacksonville Center
Thu 10:32:10 PM 29.3175 -82.3258 174° South 402 463 24,100 -1,550 Descending Jacksonville Center
Thu 10:33:10 PM 29.2131 -82.3144 175° South 396 456 22,500 -1,550 Descending Jacksonville Center
Thu 10:34:10 PM 29.1147 -82.3008 173° South 384 442 21,000 -850 Descending Jacksonville Center
Thu 10:35:10 PM 29.0167 -82.2869 173° South 364 419 20,800 -800 Descending Jacksonville Center
Thu 10:36:10 PM 28.9206 -82.2806 177° South 358 412 19,400 -1,400 Descending Jacksonville Center
Thu 10:37:10 PM 28.8267 -82.2692 174° South 353 406 18,000 -1,250 Descending Jacksonville Center
Thu 10:38:10 PM 28.7347 -82.2581 174° South 341 392 16,900 -550 Descending Jacksonville Center
Thu 10:39:10 PM 28.6697 -82.2039 144° Southeast 302 348 16,900  Level Jacksonville Center
Thu 10:40:10 PM 28.7194 -82.1256 54° Northeast 191 220 16,900  Level Jacksonville Center
Thu 10:41:10 PM 28.7900 -82.0681 36° Northeast 223 257 16,900  Level Jacksonville Center
Thu 10:42:10 PM 28.8489 -82.1294 318° Northwest 179 206 16,900  Level Jacksonville Center
Thu 10:43:10 PM 28.7992 -82.2008 232° Southwest 161 185 16,900  Level Jacksonville Center
Thu 10:44:10 PM 28.7306 -82.2675 220° Southwest 231 266 16,900  Level Jacksonville Center
Thu 10:45:10 PM 28.6575 -82.2325 157° South 222 255 16,900  Level Jacksonville Center
Thu 10:46:10 PM 28.6986 -82.1494 61° Northeast 138 159 16,900  Level Jacksonville Center
Thu 10:47:10 PM 28.7650 -82.0850 40° Northeast 230 265 16,900  Level Jacksonville Center
Thu 10:48:10 PM 28.8403 -82.0961 353° North 221 254 16,900  Level Jacksonville Center
Thu 10:49:10 PM 28.8200 -82.1839 255° West 154 177 16,900  Level Jacksonville Center
Thu 10:50:10 PM 28.7536 -82.2461 219° Southwest 212 244 16,900  Level Jacksonville Center
Thu 10:51:10 PM 28.6742 -82.2583 188° South 243 280 16,900  Level Jacksonville Center
Thu 10:52:10 PM 28.6781 -82.1683 87° East 141 162 16,900  Level Jacksonville Center
Thu 10:53:10 PM 28.7464 -82.1017 41° Northeast 182 209 16,900  Level Jacksonville Center
Thu 10:54:10 PM 28.8236 -82.0797 14° North 245 282 16,900 -350 Level Jacksonville Center
Thu 10:55:10 PM 28.8386 -82.1625 282° West 158 182 16,200 -700 Descending Jacksonville Center
Thu 10:56:10 PM 28.7742 -82.2247 220° Southwest 171 197 15,500 -1,150 Descending Jacksonville Center
Thu 10:57:10 PM 28.7014 -82.2725 210° Southwest 255 293 13,900 -800 Descending Jacksonville Center
Thu 10:58:10 PM 28.6678 -82.1969 117° Southeast 159 183 13,900  Level Jacksonville Center
Thu 10:59:10 PM 28.7300 -82.1303 43° Northeast 149 171 13,900  Level Jacksonville Center
Thu 11:00:10 PM 28.7964 -82.0822 32° Northeast 229 264 13,900  Level Jacksonville Center
Thu 11:01:10 PM 28.8447 -82.1389 314° West 168 193 13,900 -300 Level Jacksonville Center
Thu 11:02:10 PM 28.8033 -82.2172 239° Southwest 160 184 13,300 -332 Descending Jacksonville Center
Thu 11:04:29 PM 28.6500 -82.2667 196° South 301 346 12,800 -673 Descending Tampa TRACON
Thu 11:05:35 PM 28.5667 -82.2500 170° South 297 342 11,000 -1,524 Descending Tampa TRACON
Thu 11:06:35 PM 28.4833 -82.2500 180° South 285 328 9,600 -1,000 Descending Tampa TRACON
Thu 11:07:35 PM 28.4000 -82.2667 190° South 276 318 9,000 -300 Descending Tampa TRACON
Thu 11:08:35 PM 28.3333 -82.3000 204° Southwest 273 314 9,000 -500 Level Tampa TRACON
Thu 11:09:35 PM 28.3000 -82.3500 233° Southwest 259 298 8,000 -1,000 Descending Tampa TRACON
Thu 11:10:35 PM 28.2833 -82.4333 257° West 240 276 7,000 -952 Descending Tampa TRACON
Thu 11:11:41 PM 28.2833 -82.5167 270° West 225 259 6,000 -524 Descending Tampa TRACON
Thu 11:12:41 PM 28.2500 -82.5500 221° Southwest 227 261 5,900 -100 Descending Tampa TRACON

Login

Don't have an account? Register now (free) for customized features, flight alerts, and more!